<?xml version="1.0" encoding="UTF-8" standalone="no" ?>
<gpx xmlns="http://www.topografix.com/GPX/1/1" xmlns:xsi="http://www.w3.org/2001/XMLSchema-instance" xsi:schemaLocation="http://www.topografix.com/GPX/1/1 http://www.topografix.com/GPX/1/1/gpx.xsd" version="1.1" creator="VisuGPX - https://www.visugpx.com">
  <metadata>
    <name>-Oingt-les pierres dorées</name>
    <desc><![CDATA[superbe rando pour decouvrir les villages des pierres dorées et le beaujolais ]]></desc>
  </metadata>
  <trk>
    <name><![CDATA[10364666-Oingt-les pierres dorées]]></name>
    <trkseg>
      <trkpt lat="45.94976" lon="4.58309">
        <ele>525</ele>
        <time>2021-01-29T11:02:00Z</time>
      </trkpt>
      <trkpt lat="45.94942" lon="4.58317">
        <ele>526</ele>
        <time>2021-01-29T11:02:46Z</time>
      </trkpt>
      <trkpt lat="45.94913" lon="4.58335">
        <ele>527</ele>
        <time>2021-01-29T11:03:28Z</time>
      </trkpt>
      <trkpt lat="45.94904" lon="4.58303">
        <ele>526</ele>
        <time>2021-01-29T11:04:00Z</time>
      </trkpt>
      <trkpt lat="45.94876" lon="4.58302">
        <ele>529</ele>
        <time>2021-01-29T11:04:38Z</time>
      </trkpt>
      <trkpt lat="45.94855" lon="4.58278">
        <ele>532</ele>
        <time>2021-01-29T11:05:13Z</time>
      </trkpt>
      <trkpt lat="45.94846" lon="4.58281">
        <ele>533</ele>
        <time>2021-01-29T11:05:26Z</time>
      </trkpt>
      <trkpt lat="45.94842" lon="4.58271">
        <ele>534</ele>
        <time>2021-01-29T11:05:36Z</time>
      </trkpt>
      <trkpt lat="45.94813" lon="4.58253">
        <ele>537</ele>
        <time>2021-01-29T11:06:19Z</time>
      </trkpt>
      <trkpt lat="45.94802" lon="4.58185">
        <ele>529</ele>
        <time>2021-01-29T11:07:23Z</time>
      </trkpt>
      <trkpt lat="45.94755" lon="4.58191">
        <ele>530</ele>
        <time>2021-01-29T11:08:26Z</time>
      </trkpt>
      <trkpt lat="45.94732" lon="4.58202">
        <ele>529</ele>
        <time>2021-01-29T11:08:59Z</time>
      </trkpt>
      <trkpt lat="45.94732" lon="4.58225">
        <ele>532</ele>
        <time>2021-01-29T11:09:20Z</time>
      </trkpt>
      <trkpt lat="45.94741" lon="4.58259">
        <ele>535</ele>
        <time>2021-01-29T11:09:54Z</time>
      </trkpt>
      <trkpt lat="45.94744" lon="4.58267">
        <ele>534</ele>
        <time>2021-01-29T11:10:02Z</time>
      </trkpt>
      <trkpt lat="45.94687" lon="4.58287">
        <ele>527</ele>
        <time>2021-01-29T11:11:20Z</time>
      </trkpt>
      <trkpt lat="45.94669" lon="4.58409">
        <ele>509</ele>
        <time>2021-01-29T11:13:16Z</time>
      </trkpt>
      <trkpt lat="45.9463" lon="4.58474">
        <ele>501</ele>
        <time>2021-01-29T11:14:36Z</time>
      </trkpt>
      <trkpt lat="45.94434" lon="4.58662">
        <ele>465</ele>
        <time>2021-01-29T11:19:50Z</time>
      </trkpt>
      <trkpt lat="45.94383" lon="4.58753">
        <ele>454</ele>
        <time>2021-01-29T11:21:39Z</time>
      </trkpt>
      <trkpt lat="45.9422" lon="4.58912">
        <ele>436</ele>
        <time>2021-01-29T11:26:01Z</time>
      </trkpt>
      <trkpt lat="45.94216" lon="4.58989">
        <ele>433</ele>
        <time>2021-01-29T11:27:13Z</time>
      </trkpt>
      <trkpt lat="45.94216" lon="4.59053">
        <ele>440</ele>
        <time>2021-01-29T11:28:13Z</time>
      </trkpt>
      <trkpt lat="45.94339" lon="4.59202">
        <ele>473</ele>
        <time>2021-01-29T11:31:47Z</time>
      </trkpt>
      <trkpt lat="45.94349" lon="4.5926">
        <ele>477</ele>
        <time>2021-01-29T11:32:43Z</time>
      </trkpt>
      <trkpt lat="45.94419" lon="4.59266">
        <ele>492</ele>
        <time>2021-01-29T11:34:16Z</time>
      </trkpt>
      <trkpt lat="45.94419" lon="4.59138">
        <ele>495</ele>
        <time>2021-01-29T11:36:15Z</time>
      </trkpt>
      <trkpt lat="45.94552" lon="4.59293">
        <ele>514</ele>
        <time>2021-01-29T11:40:03Z</time>
      </trkpt>
      <trkpt lat="45.94617" lon="4.59293">
        <ele>520</ele>
        <time>2021-01-29T11:41:30Z</time>
      </trkpt>
      <trkpt lat="45.94683" lon="4.59323">
        <ele>528</ele>
        <time>2021-01-29T11:43:03Z</time>
      </trkpt>
      <trkpt lat="45.94697" lon="4.59381">
        <ele>530</ele>
        <time>2021-01-29T11:43:59Z</time>
      </trkpt>
      <trkpt lat="45.94375" lon="4.59606">
        <ele>526</ele>
        <time>2021-01-29T11:51:57Z</time>
      </trkpt>
      <trkpt lat="45.94305" lon="4.59785">
        <ele>528</ele>
        <time>2021-01-29T11:55:08Z</time>
      </trkpt>
      <trkpt lat="45.94204" lon="4.6">
        <ele>516</ele>
        <time>2021-01-29T11:59:09Z</time>
      </trkpt>
      <trkpt lat="45.94016" lon="4.60134">
        <ele>501</ele>
        <time>2021-01-29T12:03:49Z</time>
      </trkpt>
      <trkpt lat="45.93706" lon="4.60252">
        <ele>511</ele>
        <time>2021-01-29T12:10:56Z</time>
      </trkpt>
      <trkpt lat="45.93505" lon="4.60267">
        <ele>514</ele>
        <time>2021-01-29T12:15:25Z</time>
      </trkpt>
      <trkpt lat="45.93482" lon="4.6007">
        <ele>498</ele>
        <time>2021-01-29T12:18:30Z</time>
      </trkpt>
      <trkpt lat="45.93706" lon="4.5997">
        <ele>488</ele>
        <time>2021-01-29T12:23:43Z</time>
      </trkpt>
      <trkpt lat="45.93397" lon="4.59851">
        <ele>456</ele>
        <time>2021-01-29T12:30:50Z</time>
      </trkpt>
      <trkpt lat="45.93362" lon="4.5973">
        <ele>430</ele>
        <time>2021-01-29T12:32:52Z</time>
      </trkpt>
      <trkpt lat="45.93283" lon="4.59836">
        <ele>441</ele>
        <time>2021-01-29T12:35:16Z</time>
      </trkpt>
      <trkpt lat="45.93153" lon="4.59854">
        <ele>430</ele>
        <time>2021-01-29T12:38:10Z</time>
      </trkpt>
      <trkpt lat="45.9307" lon="4.59927">
        <ele>446</ele>
        <time>2021-01-29T12:40:20Z</time>
      </trkpt>
      <trkpt lat="45.92975" lon="4.59961">
        <ele>449</ele>
        <time>2021-01-29T12:42:31Z</time>
      </trkpt>
      <trkpt lat="45.92984" lon="4.60018">
        <ele>460</ele>
        <time>2021-01-29T12:43:25Z</time>
      </trkpt>
      <trkpt lat="45.9295" lon="4.60082">
        <ele>468</ele>
        <time>2021-01-29T12:44:40Z</time>
      </trkpt>
      <trkpt lat="45.92918" lon="4.60225">
        <ele>468</ele>
        <time>2021-01-29T12:46:59Z</time>
      </trkpt>
      <trkpt lat="45.92838" lon="4.60325">
        <ele>460</ele>
        <time>2021-01-29T12:49:21Z</time>
      </trkpt>
      <trkpt lat="45.93098" lon="4.6058">
        <ele>502</ele>
        <time>2021-01-29T12:56:21Z</time>
      </trkpt>
      <trkpt lat="45.93108" lon="4.60546">
        <ele>505</ele>
        <time>2021-01-29T12:56:55Z</time>
      </trkpt>
      <trkpt lat="45.93269" lon="4.60616">
        <ele>488</ele>
        <time>2021-01-29T13:00:40Z</time>
      </trkpt>
      <trkpt lat="45.93309" lon="4.6058">
        <ele>486</ele>
        <time>2021-01-29T13:01:43Z</time>
      </trkpt>
      <trkpt lat="45.93594" lon="4.60637">
        <ele>448</ele>
        <time>2021-01-29T13:08:07Z</time>
      </trkpt>
      <trkpt lat="45.9353" lon="4.6075">
        <ele>441</ele>
        <time>2021-01-29T13:10:22Z</time>
      </trkpt>
      <trkpt lat="45.93495" lon="4.60971">
        <ele>437</ele>
        <time>2021-01-29T13:13:52Z</time>
      </trkpt>
      <trkpt lat="45.93421" lon="4.61056">
        <ele>440</ele>
        <time>2021-01-29T13:15:59Z</time>
      </trkpt>
      <trkpt lat="45.93315" lon="4.61114">
        <ele>436</ele>
        <time>2021-01-29T13:18:30Z</time>
      </trkpt>
      <trkpt lat="45.93062" lon="4.61232">
        <ele>429</ele>
        <time>2021-01-29T13:24:25Z</time>
      </trkpt>
      <trkpt lat="45.92961" lon="4.61332">
        <ele>423</ele>
        <time>2021-01-29T13:27:08Z</time>
      </trkpt>
      <trkpt lat="45.92899" lon="4.61593">
        <ele>395</ele>
        <time>2021-01-29T13:31:24Z</time>
      </trkpt>
      <trkpt lat="45.928" lon="4.61702">
        <ele>386</ele>
        <time>2021-01-29T13:34:11Z</time>
      </trkpt>
      <trkpt lat="45.92758" lon="4.61851">
        <ele>378</ele>
        <time>2021-01-29T13:36:40Z</time>
      </trkpt>
      <trkpt lat="45.92642" lon="4.6176">
        <ele>373</ele>
        <time>2021-01-29T13:39:36Z</time>
      </trkpt>
      <trkpt lat="45.92492" lon="4.61863">
        <ele>362</ele>
        <time>2021-01-29T13:43:18Z</time>
      </trkpt>
      <trkpt lat="45.92564" lon="4.62012">
        <ele>366</ele>
        <time>2021-01-29T13:46:07Z</time>
      </trkpt>
      <trkpt lat="45.92623" lon="4.62033">
        <ele>370</ele>
        <time>2021-01-29T13:47:28Z</time>
      </trkpt>
      <trkpt lat="45.92697" lon="4.62076">
        <ele>375</ele>
        <time>2021-01-29T13:49:14Z</time>
      </trkpt>
      <trkpt lat="45.92832" lon="4.62127">
        <ele>374</ele>
        <time>2021-01-29T13:52:21Z</time>
      </trkpt>
      <trkpt lat="45.92866" lon="4.62182">
        <ele>371</ele>
        <time>2021-01-29T13:53:29Z</time>
      </trkpt>
      <trkpt lat="45.92933" lon="4.62236">
        <ele>365</ele>
        <time>2021-01-29T13:55:11Z</time>
      </trkpt>
      <trkpt lat="45.92923" lon="4.62379">
        <ele>361</ele>
        <time>2021-01-29T13:57:25Z</time>
      </trkpt>
      <trkpt lat="45.92817" lon="4.62616">
        <ele>362</ele>
        <time>2021-01-29T14:01:46Z</time>
      </trkpt>
      <trkpt lat="45.92671" lon="4.62676">
        <ele>356</ele>
        <time>2021-01-29T14:05:09Z</time>
      </trkpt>
      <trkpt lat="45.92536" lon="4.6298">
        <ele>339</ele>
        <time>2021-01-29T14:10:44Z</time>
      </trkpt>
      <trkpt lat="45.92756" lon="4.63265">
        <ele>336</ele>
        <time>2021-01-29T14:17:19Z</time>
      </trkpt>
      <trkpt lat="45.92678" lon="4.63432">
        <ele>334</ele>
        <time>2021-01-29T14:20:26Z</time>
      </trkpt>
      <trkpt lat="45.92659" lon="4.63611">
        <ele>330</ele>
        <time>2021-01-29T14:23:14Z</time>
      </trkpt>
      <trkpt lat="45.92652" lon="4.63766">
        <ele>332</ele>
        <time>2021-01-29T14:25:38Z</time>
      </trkpt>
      <trkpt lat="45.92771" lon="4.63614">
        <ele>332</ele>
        <time>2021-01-29T14:29:10Z</time>
      </trkpt>
      <trkpt lat="45.92735" lon="4.63805">
        <ele>331</ele>
        <time>2021-01-29T14:32:14Z</time>
      </trkpt>
      <trkpt lat="45.92775" lon="4.64239">
        <ele>327</ele>
        <time>2021-01-29T14:39:00Z</time>
      </trkpt>
      <trkpt lat="45.92847" lon="4.64203">
        <ele>324</ele>
        <time>2021-01-29T14:40:42Z</time>
      </trkpt>
      <trkpt lat="45.92857" lon="4.64094">
        <ele>322</ele>
        <time>2021-01-29T14:42:24Z</time>
      </trkpt>
      <trkpt lat="45.93098" lon="4.64075">
        <ele>304</ele>
        <time>2021-01-29T14:47:46Z</time>
      </trkpt>
      <trkpt lat="45.93146" lon="4.64126">
        <ele>297</ele>
        <time>2021-01-29T14:49:06Z</time>
      </trkpt>
      <trkpt lat="45.93173" lon="4.6417">
        <ele>294</ele>
        <time>2021-01-29T14:50:00Z</time>
      </trkpt>
      <trkpt lat="45.93226" lon="4.6419">
        <ele>291</ele>
        <time>2021-01-29T14:51:13Z</time>
      </trkpt>
      <trkpt lat="45.93263" lon="4.64264">
        <ele>290</ele>
        <time>2021-01-29T14:52:38Z</time>
      </trkpt>
      <trkpt lat="45.93318" lon="4.64261">
        <ele>292</ele>
        <time>2021-01-29T14:53:51Z</time>
      </trkpt>
      <trkpt lat="45.93412" lon="4.64162">
        <ele>306</ele>
        <time>2021-01-29T14:56:27Z</time>
      </trkpt>
      <trkpt lat="45.93357" lon="4.63902">
        <ele>317</ele>
        <time>2021-01-29T15:00:39Z</time>
      </trkpt>
      <trkpt lat="45.93359" lon="4.63532">
        <ele>329</ele>
        <time>2021-01-29T15:06:23Z</time>
      </trkpt>
      <trkpt lat="45.93462" lon="4.63136">
        <ele>350</ele>
        <time>2021-01-29T15:12:55Z</time>
      </trkpt>
      <trkpt lat="45.93361" lon="4.63179">
        <ele>345</ele>
        <time>2021-01-29T15:15:16Z</time>
      </trkpt>
      <trkpt lat="45.93336" lon="4.63111">
        <ele>344</ele>
        <time>2021-01-29T15:16:27Z</time>
      </trkpt>
      <trkpt lat="45.93269" lon="4.63105">
        <ele>332</ele>
        <time>2021-01-29T15:17:57Z</time>
      </trkpt>
      <trkpt lat="45.93237" lon="4.6305">
        <ele>328</ele>
        <time>2021-01-29T15:19:03Z</time>
      </trkpt>
      <trkpt lat="45.9314" lon="4.62989">
        <ele>317</ele>
        <time>2021-01-29T15:21:24Z</time>
      </trkpt>
      <trkpt lat="45.93178" lon="4.62868">
        <ele>325</ele>
        <time>2021-01-29T15:23:28Z</time>
      </trkpt>
      <trkpt lat="45.93343" lon="4.62743">
        <ele>354</ele>
        <time>2021-01-29T15:27:36Z</time>
      </trkpt>
      <trkpt lat="45.93459" lon="4.62722">
        <ele>362</ele>
        <time>2021-01-29T15:30:12Z</time>
      </trkpt>
      <trkpt lat="45.93408" lon="4.62473">
        <ele>337</ele>
        <time>2021-01-29T15:34:13Z</time>
      </trkpt>
      <trkpt lat="45.93343" lon="4.62464">
        <ele>331</ele>
        <time>2021-01-29T15:35:41Z</time>
      </trkpt>
      <trkpt lat="45.93252" lon="4.62497">
        <ele>324</ele>
        <time>2021-01-29T15:37:46Z</time>
      </trkpt>
      <trkpt lat="45.93174" lon="4.62464">
        <ele>323</ele>
        <time>2021-01-29T15:39:34Z</time>
      </trkpt>
      <trkpt lat="45.93106" lon="4.62397">
        <ele>332</ele>
        <time>2021-01-29T15:41:24Z</time>
      </trkpt>
      <trkpt lat="45.93123" lon="4.62318">
        <ele>337</ele>
        <time>2021-01-29T15:42:41Z</time>
      </trkpt>
      <trkpt lat="45.93117" lon="4.62221">
        <ele>341</ele>
        <time>2021-01-29T15:44:11Z</time>
      </trkpt>
      <trkpt lat="45.93051" lon="4.62054">
        <ele>351</ele>
        <time>2021-01-29T15:47:10Z</time>
      </trkpt>
      <trkpt lat="45.93047" lon="4.61906">
        <ele>358</ele>
        <time>2021-01-29T15:49:27Z</time>
      </trkpt>
      <trkpt lat="45.93142" lon="4.61787">
        <ele>354</ele>
        <time>2021-01-29T15:52:15Z</time>
      </trkpt>
      <trkpt lat="45.93343" lon="4.61842">
        <ele>357</ele>
        <time>2021-01-29T15:56:48Z</time>
      </trkpt>
      <trkpt lat="45.93332" lon="4.6179">
        <ele>356</ele>
        <time>2021-01-29T15:57:39Z</time>
      </trkpt>
      <trkpt lat="45.93539" lon="4.61878">
        <ele>392</ele>
        <time>2021-01-29T16:02:27Z</time>
      </trkpt>
      <trkpt lat="45.93881" lon="4.61787">
        <ele>440</ele>
        <time>2021-01-29T16:10:11Z</time>
      </trkpt>
      <trkpt lat="45.93858" lon="4.61633">
        <ele>441</ele>
        <time>2021-01-29T16:12:37Z</time>
      </trkpt>
      <trkpt lat="45.93924" lon="4.61589">
        <ele>449</ele>
        <time>2021-01-29T16:14:14Z</time>
      </trkpt>
      <trkpt lat="45.9398" lon="4.61434">
        <ele>455</ele>
        <time>2021-01-29T16:16:56Z</time>
      </trkpt>
      <trkpt lat="45.93996" lon="4.61563">
        <ele>458</ele>
        <time>2021-01-29T16:18:58Z</time>
      </trkpt>
      <trkpt lat="45.93959" lon="4.61625">
        <ele>456</ele>
        <time>2021-01-29T16:20:14Z</time>
      </trkpt>
      <trkpt lat="45.93988" lon="4.61655">
        <ele>461</ele>
        <time>2021-01-29T16:21:01Z</time>
      </trkpt>
      <trkpt lat="45.94015" lon="4.61709">
        <ele>463</ele>
        <time>2021-01-29T16:22:03Z</time>
      </trkpt>
      <trkpt lat="45.94026" lon="4.61666">
        <ele>467</ele>
        <time>2021-01-29T16:22:46Z</time>
      </trkpt>
      <trkpt lat="45.94195" lon="4.6159">
        <ele>497</ele>
        <time>2021-01-29T16:26:42Z</time>
      </trkpt>
      <trkpt lat="45.94223" lon="4.61496">
        <ele>514</ele>
        <time>2021-01-29T16:28:17Z</time>
      </trkpt>
      <trkpt lat="45.94277" lon="4.61466">
        <ele>526</ele>
        <time>2021-01-29T16:29:34Z</time>
      </trkpt>
      <trkpt lat="45.94486" lon="4.61447">
        <ele>532</ele>
        <time>2021-01-29T16:34:14Z</time>
      </trkpt>
      <trkpt lat="45.94716" lon="4.61302">
        <ele>544</ele>
        <time>2021-01-29T16:39:49Z</time>
      </trkpt>
      <trkpt lat="45.94877" lon="4.60913">
        <ele>574</ele>
        <time>2021-01-29T16:46:49Z</time>
      </trkpt>
      <trkpt lat="45.94826" lon="4.6068">
        <ele>577</ele>
        <time>2021-01-29T16:50:35Z</time>
      </trkpt>
      <trkpt lat="45.94822" lon="4.6058">
        <ele>573</ele>
        <time>2021-01-29T16:52:08Z</time>
      </trkpt>
      <trkpt lat="45.95029" lon="4.60258">
        <ele>573</ele>
        <time>2021-01-29T16:58:55Z</time>
      </trkpt>
      <trkpt lat="45.95111" lon="4.60185">
        <ele>585</ele>
        <time>2021-01-29T17:01:04Z</time>
      </trkpt>
      <trkpt lat="45.95265" lon="4.5978">
        <ele>639</ele>
        <time>2021-01-29T17:08:12Z</time>
      </trkpt>
      <trkpt lat="45.95423" lon="4.59491">
        <ele>647</ele>
        <time>2021-01-29T17:13:53Z</time>
      </trkpt>
      <trkpt lat="45.95559" lon="4.59367">
        <ele>645</ele>
        <time>2021-01-29T17:17:28Z</time>
      </trkpt>
      <trkpt lat="45.95759" lon="4.59268">
        <ele>635</ele>
        <time>2021-01-29T17:22:10Z</time>
      </trkpt>
      <trkpt lat="45.95853" lon="4.59245">
        <ele>632</ele>
        <time>2021-01-29T17:24:18Z</time>
      </trkpt>
      <trkpt lat="45.95911" lon="4.59194">
        <ele>631</ele>
        <time>2021-01-29T17:25:48Z</time>
      </trkpt>
      <trkpt lat="45.95995" lon="4.59129">
        <ele>631</ele>
        <time>2021-01-29T17:27:56Z</time>
      </trkpt>
      <trkpt lat="45.96043" lon="4.59089">
        <ele>626</ele>
        <time>2021-01-29T17:29:10Z</time>
      </trkpt>
      <trkpt lat="45.96096" lon="4.59037">
        <ele>616</ele>
        <time>2021-01-29T17:30:35Z</time>
      </trkpt>
      <trkpt lat="45.96155" lon="4.58978">
        <ele>607</ele>
        <time>2021-01-29T17:32:11Z</time>
      </trkpt>
      <trkpt lat="45.96046" lon="4.58927">
        <ele>601</ele>
        <time>2021-01-29T17:34:44Z</time>
      </trkpt>
      <trkpt lat="45.95948" lon="4.58925">
        <ele>593</ele>
        <time>2021-01-29T17:36:55Z</time>
      </trkpt>
      <trkpt lat="45.95818" lon="4.58998">
        <ele>584</ele>
        <time>2021-01-29T17:40:01Z</time>
      </trkpt>
      <trkpt lat="45.95618" lon="4.59064">
        <ele>581</ele>
        <time>2021-01-29T17:44:35Z</time>
      </trkpt>
      <trkpt lat="45.95534" lon="4.59049">
        <ele>575</ele>
        <time>2021-01-29T17:46:28Z</time>
      </trkpt>
      <trkpt lat="45.95362" lon="4.58943">
        <ele>558</ele>
        <time>2021-01-29T17:50:38Z</time>
      </trkpt>
      <trkpt lat="45.95217" lon="4.58636">
        <ele>545</ele>
        <time>2021-01-29T17:56:22Z</time>
      </trkpt>
      <trkpt lat="45.95099" lon="4.5847">
        <ele>539</ele>
        <time>2021-01-29T18:00:02Z</time>
      </trkpt>
      <trkpt lat="45.94907" lon="4.58392">
        <ele>527</ele>
        <time>2021-01-29T18:04:28Z</time>
      </trkpt>
    </trkseg>
  </trk>
</gpx>